sensor_id;sensor_type;location;lat;lon;timestamp;temperature;humidity
816;DHT22;25928;51.062;13.752;2022-09-17T00:00:17;13.40;1.00
816;DHT22;25928;51.062;13.752;2022-09-17T00:02:43;13.40;1.00
816;DHT22;25928;51.062;13.752;2022-09-17T00:05:10;13.40;1.00
816;DHT22;25928;51.062;13.752;2022-09-17T00:07:36;13.20;1.00
816;DHT22;25928;51.062;13.752;2022-09-17T00:10:03;13.30;1.00
816;DHT22;25928;51.062;13.752;2022-09-17T00:12:30;13.30;1.00
816;DHT22;25928;51.062;13.752;2022-09-17T00:14:56;13.30;1.00
816;DHT22;25928;51.062;13.752;2022-09-17T00:17:22;13.30;1.00
816;DHT22;25928;51.062;13.752;2022-09-17T00:19:47;13.40;1.00
816;DHT22;25928;51.062;13.752;2022-09-17T00:22:14;13.40;1.00
816;DHT22;25928;51.062;13.752;2022-09-17T00:24:40;13.50;1.00
816;DHT22;25928;51.062;13.752;2022-09-17T00:27:05;13.40;1.00
816;DHT22;25928;51.062;13.752;2022-09-17T00:29:31;13.30;1.00
816;DHT22;25928;51.062;13.752;2022-09-17T00:31:57;13.30;1.00
816;DHT22;25928;51.062;13.752;2022-09-17T00:34:22;13.30;1.00
816;DHT22;25928;51.062;13.752;2022-09-17T00:36:48;13.40;1.00
816;DHT22;25928;51.062;13.752;2022-09-17T00:39:13;13.40;1.00
816;DHT22;25928;51.062;13.752;2022-09-17T00:41:41;13.40;1.00
816;DHT22;25928;51.062;13.752;2022-09-17T00:47:03;13.30;1.00
816;DHT22;25928;51.062;13.752;2022-09-17T00:49:29;13.40;1.00
816;DHT22;25928;51.062;13.752;2022-09-17T00:52:02;13.40;1.00
816;DHT22;25928;51.062;13.752;2022-09-17T00:54:29;13.30;1.00
816;DHT22;25928;51.062;13.752;2022-09-17T00:56:56;13.30;1.00
816;DHT22;25928;51.062;13.752;2022-09-17T00:59:22;13.30;1.00
816;DHT22;25928;51.062;13.752;2022-09-17T01:01:48;13.30;1.00
816;DHT22;25928;51.062;13.752;2022-09-17T01:04:23;13.30;1.00
816;DHT22;25928;51.062;13.752;2022-09-17T01:06:59;13.40;1.00
816;DHT22;25928;51.062;13.752;2022-09-17T01:15:12;13.40;1.00
816;DHT22;25928;51.062;13.752;2022-09-17T01:31:53;13.30;1.00
816;DHT22;25928;51.062;13.752;2022-09-17T01:34:44;13.30;1.00
816;DHT22;25928;51.062;13.752;2022-09-17T01:37:18;13.30;1.00
816;DHT22;25928;51.062;13.752;2022-09-17T01:40:14;13.20;1.00
816;DHT22;25928;51.062;13.752;2022-09-17T01:43:03;13.30;1.00
816;DHT22;25928;51.062;13.752;2022-09-17T01:48:15;13.30;1.00
816;DHT22;25928;51.062;13.752;2022-09-17T01:51:06;13.30;1.00
816;DHT22;25928;51.062;13.752;2022-09-17T01:56:39;13.30;1.00
816;DHT22;25928;51.062;13.752;2022-09-17T01:59:14;13.40;1.00
816;DHT22;25928;51.062;13.752;2022-09-17T02:01:43;13.40;1.00
816;DHT22;25928;51.062;13.752;2022-09-17T02:04:18;13.40;1.00
816;DHT22;25928;51.062;13.752;2022-09-17T02:06:51;13.40;1.00
816;DHT22;25928;51.062;13.752;2022-09-17T02:09:21;13.40;1.00
816;DHT22;25928;51.062;13.752;2022-09-17T02:11:51;13.40;1.00
816;DHT22;25928;51.062;13.752;2022-09-17T02:14:48;13.30;1.00
816;DHT22;25928;51.062;13.752;2022-09-17T02:17:30;13.40;1.00
816;DHT22;25928;51.062;13.752;2022-09-17T02:19:56;13.30;1.00
816;DHT22;25928;51.062;13.752;2022-09-17T02:22:38;13.40;1.00
816;DHT22;25928;51.062;13.752;2022-09-17T02:25:30;13.40;1.00
816;DHT22;25928;51.062;13.752;2022-09-17T02:28:10;13.50;1.00
816;DHT22;25928;51.062;13.752;2022-09-17T02:30:37;13.60;1.00
816;DHT22;25928;51.062;13.752;2022-09-17T02:33:06;13.50;1.00
816;DHT22;25928;51.062;13.752;2022-09-17T02:35:34;13.40;1.00
816;DHT22;25928;51.062;13.752;2022-09-17T02:38:01;13.20;1.00
816;DHT22;25928;51.062;13.752;2022-09-17T02:40:28;13.30;1.00
816;DHT22;25928;51.062;13.752;2022-09-17T02:43:19;13.40;1.00
816;DHT22;25928;51.062;13.752;2022-09-17T02:48:31;13.60;1.00
816;DHT22;25928;51.062;13.752;2022-09-17T02:51:31;13.40;1.00
816;DHT22;25928;51.062;13.752;2022-09-17T03:00:06;13.40;1.00
816;DHT22;25928;51.062;13.752;2022-09-17T03:03:11;13.40;1.00
816;DHT22;25928;51.062;13.752;2022-09-17T03:05:37;13.50;1.00
816;DHT22;25928;51.062;13.752;2022-09-17T03:08:08;13.40;1.00
816;DHT22;25928;51.062;13.752;2022-09-17T03:10:36;13.40;1.00
816;DHT22;25928;51.062;13.752;2022-09-17T03:13:02;13.40;1.00
816;DHT22;25928;51.062;13.752;2022-09-17T03:15:28;13.40;1.00
816;DHT22;25928;51.062;13.752;2022-09-17T03:17:54;13.50;1.00
816;DHT22;25928;51.062;13.752;2022-09-17T03:20:20;13.60;1.00
816;DHT22;25928;51.062;13.752;2022-09-17T03:22:45;13.60;1.00
816;DHT22;25928;51.062;13.752;2022-09-17T03:25:11;13.50;1.00
816;DHT22;25928;51.062;13.752;2022-09-17T03:27:37;13.50;1.00
816;DHT22;25928;51.062;13.752;2022-09-17T03:30:04;13.60;1.00
816;DHT22;25928;51.062;13.752;2022-09-17T03:32:31;13.50;1.00
816;DHT22;25928;51.062;13.752;2022-09-17T03:34:57;13.50;1.00
816;DHT22;25928;51.062;13.752;2022-09-17T03:37:22;13.50;1.00
816;DHT22;25928;51.062;13.752;2022-09-17T03:39:48;13.60;1.00
816;DHT22;25928;51.062;13.752;2022-09-17T03:42:13;13.60;1.00
816;DHT22;25928;51.062;13.752;2022-09-17T03:44:39;13.50;1.00
816;DHT22;25928;51.062;13.752;2022-09-17T03:47:04;13.50;1.00
816;DHT22;25928;51.062;13.752;2022-09-17T03:49:30;13.50;1.00
816;DHT22;25928;51.062;13.752;2022-09-17T03:51:56;13.50;1.00
816;DHT22;25928;51.062;13.752;2022-09-17T03:54:21;13.50;1.00
816;DHT22;25928;51.062;13.752;2022-09-17T03:56:47;13.50;1.00
816;DHT22;25928;51.062;13.752;2022-09-17T03:59:13;13.50;1.00
816;DHT22;25928;51.062;13.752;2022-09-17T04:01:38;13.50;1.00
816;DHT22;25928;51.062;13.752;2022-09-17T04:04:04;13.40;1.00
816;DHT22;25928;51.062;13.752;2022-09-17T04:06:30;13.60;1.00
816;DHT22;25928;51.062;13.752;2022-09-17T04:08:56;13.60;1.00
816;DHT22;25928;51.062;13.752;2022-09-17T04:11:21;13.60;1.00
816;DHT22;25928;51.062;13.752;2022-09-17T04:13:47;13.50;1.00
816;DHT22;25928;51.062;13.752;2022-09-17T04:16:13;13.40;1.00
816;DHT22;25928;51.062;13.752;2022-09-17T04:18:39;13.40;1.00
816;DHT22;25928;51.062;13.752;2022-09-17T04:21:05;13.40;1.00
816;DHT22;25928;51.062;13.752;2022-09-17T04:23:31;13.50;1.00
816;DHT22;25928;51.062;13.752;2022-09-17T04:25:56;13.50;1.00
816;DHT22;25928;51.062;13.752;2022-09-17T04:28:22;13.40;1.00
816;DHT22;25928;51.062;13.752;2022-09-17T04:30:48;13.30;1.00
816;DHT22;25928;51.062;13.752;2022-09-17T04:33:13;13.20;1.00
816;DHT22;25928;51.062;13.752;2022-09-17T04:35:39;13.20;1.00
816;DHT22;25928;51.062;13.752;2022-09-17T04:38:05;13.30;1.00
816;DHT22;25928;51.062;13.752;2022-09-17T04:40:30;13.40;1.00
816;DHT22;25928;51.062;13.752;2022-09-17T04:42:57;13.40;1.00
816;DHT22;25928;51.062;13.752;2022-09-17T04:45:28;13.30;1.00
816;DHT22;25928;51.062;13.752;2022-09-17T04:47:54;13.10;1.00
816;DHT22;25928;51.062;13.752;2022-09-17T04:50:21;13.10;1.00
816;DHT22;25928;51.062;13.752;2022-09-17T04:52:47;13.10;1.00
816;DHT22;25928;51.062;13.752;2022-09-17T04:55:13;13.20;1.00
816;DHT22;25928;51.062;13.752;2022-09-17T04:57:48;13.30;1.00
816;DHT22;25928;51.062;13.752;2022-09-17T05:00:15;13.20;1.00
816;DHT22;25928;51.062;13.752;2022-09-17T05:02:44;13.20;1.00
816;DHT22;25928;51.062;13.752;2022-09-17T05:05:10;13.10;1.00
816;DHT22;25928;51.062;13.752;2022-09-17T05:07:38;13.30;1.00
816;DHT22;25928;51.062;13.752;2022-09-17T05:10:04;13.20;1.00
816;DHT22;25928;51.062;13.752;2022-09-17T05:12:30;13.30;1.00
816;DHT22;25928;51.062;13.752;2022-09-17T05:14:55;13.30;1.00
816;DHT22;25928;51.062;13.752;2022-09-17T05:17:21;13.30;1.00
816;DHT22;25928;51.062;13.752;2022-09-17T05:19:46;13.30;1.00
816;DHT22;25928;51.062;13.752;2022-09-17T05:22:12;13.40;1.00
816;DHT22;25928;51.062;13.752;2022-09-17T05:24:37;13.40;1.00
816;DHT22;25928;51.062;13.752;2022-09-17T05:27:05;13.40;1.00
816;DHT22;25928;51.062;13.752;2022-09-17T05:29:30;13.40;1.00
816;DHT22;25928;51.062;13.752;2022-09-17T05:31:56;13.30;1.00
816;DHT22;25928;51.062;13.752;2022-09-17T05:34:21;13.40;1.00
816;DHT22;25928;51.062;13.752;2022-09-17T05:36:47;13.40;1.00
816;DHT22;25928;51.062;13.752;2022-09-17T05:39:13;13.40;1.00
816;DHT22;25928;51.062;13.752;2022-09-17T05:41:39;13.40;1.00
816;DHT22;25928;51.062;13.752;2022-09-17T05:44:04;13.40;1.00
816;DHT22;25928;51.062;13.752;2022-09-17T05:46:30;13.30;1.00
816;DHT22;25928;51.062;13.752;2022-09-17T05:48:56;13.20;1.00
816;DHT22;25928;51.062;13.752;2022-09-17T05:51:23;13.20;1.00
816;DHT22;25928;51.062;13.752;2022-09-17T05:53:48;13.20;1.00
816;DHT22;25928;51.062;13.752;2022-09-17T05:56:14;13.20;1.00
816;DHT22;25928;51.062;13.752;2022-09-17T05:58:40;13.10;1.00
816;DHT22;25928;51.062;13.752;2022-09-17T06:01:06;13.10;1.00
816;DHT22;25928;51.062;13.752;2022-09-17T06:03:31;13.10;1.00
816;DHT22;25928;51.062;13.752;2022-09-17T06:05:59;13.10;1.00
816;DHT22;25928;51.062;13.752;2022-09-17T06:08:26;13.20;1.00
816;DHT22;25928;51.062;13.752;2022-09-17T06:10:52;13.20;1.00
816;DHT22;25928;51.062;13.752;2022-09-17T06:13:19;13.20;1.00
816;DHT22;25928;51.062;13.752;2022-09-17T06:15:52;13.30;1.00
816;DHT22;25928;51.062;13.752;2022-09-17T06:18:18;13.30;1.00
816;DHT22;25928;51.062;13.752;2022-09-17T06:23:20;13.20;1.00
816;DHT22;25928;51.062;13.752;2022-09-17T06:25:54;13.20;1.00
816;DHT22;25928;51.062;13.752;2022-09-17T06:28:20;13.40;1.00
816;DHT22;25928;51.062;13.752;2022-09-17T06:30:46;13.40;1.00
816;DHT22;25928;51.062;13.752;2022-09-17T06:33:12;13.50;1.00
816;DHT22;25928;51.062;13.752;2022-09-17T06:35:38;13.50;1.00
816;DHT22;25928;51.062;13.752;2022-09-17T06:38:04;13.60;1.00
816;DHT22;25928;51.062;13.752;2022-09-17T06:40:30;13.60;1.00
816;DHT22;25928;51.062;13.752;2022-09-17T06:42:59;13.70;1.00
816;DHT22;25928;51.062;13.752;2022-09-17T06:45:25;13.70;1.00
816;DHT22;25928;51.062;13.752;2022-09-17T06:47:51;13.50;1.00
816;DHT22;25928;51.062;13.752;2022-09-17T06:50:16;13.40;1.00
816;DHT22;25928;51.062;13.752;2022-09-17T06:52:52;13.40;1.00
816;DHT22;25928;51.062;13.752;2022-09-17T06:55:19;13.30;1.00
816;DHT22;25928;51.062;13.752;2022-09-17T06:57:45;13.50;1.00
816;DHT22;25928;51.062;13.752;2022-09-17T07:00:12;13.50;1.00
816;DHT22;25928;51.062;13.752;2022-09-17T07:02:39;13.50;1.00
816;DHT22;25928;51.062;13.752;2022-09-17T07:05:05;13.50;1.00
816;DHT22;25928;51.062;13.752;2022-09-17T07:07:30;13.70;1.00
816;DHT22;25928;51.062;13.752;2022-09-17T07:12:22;13.70;1.00
816;DHT22;25928;51.062;13.752;2022-09-17T07:14:48;13.40;1.00
816;DHT22;25928;51.062;13.752;2022-09-17T07:17:14;13.40;1.00
816;DHT22;25928;51.062;13.752;2022-09-17T07:19:40;13.40;1.00
816;DHT22;25928;51.062;13.752;2022-09-17T07:22:06;13.30;1.00
816;DHT22;25928;51.062;13.752;2022-09-17T07:24:32;13.20;1.00
816;DHT22;25928;51.062;13.752;2022-09-17T07:26:58;13.20;1.00
816;DHT22;25928;51.062;13.752;2022-09-17T07:29:23;13.10;1.00
816;DHT22;25928;51.062;13.752;2022-09-17T07:31:52;13.10;1.00
816;DHT22;25928;51.062;13.752;2022-09-17T07:36:44;13.30;1.00
816;DHT22;25928;51.062;13.752;2022-09-17T07:39:10;13.40;1.00
816;DHT22;25928;51.062;13.752;2022-09-17T07:41:38;13.40;1.00
816;DHT22;25928;51.062;13.752;2022-09-17T07:44:03;13.50;1.00
816;DHT22;25928;51.062;13.752;2022-09-17T07:46:31;13.50;1.00
816;DHT22;25928;51.062;13.752;2022-09-17T07:48:56;13.50;1.00
816;DHT22;25928;51.062;13.752;2022-09-17T07:51:24;13.60;1.00
816;DHT22;25928;51.062;13.752;2022-09-17T07:53:51;13.70;1.00
816;DHT22;25928;51.062;13.752;2022-09-17T07:56:17;13.80;1.00
816;DHT22;25928;51.062;13.752;2022-09-17T07:58:42;13.90;1.00
816;DHT22;25928;51.062;13.752;2022-09-17T08:01:12;14.10;1.00
816;DHT22;25928;51.062;13.752;2022-09-17T08:03:39;14.20;1.00
816;DHT22;25928;51.062;13.752;2022-09-17T08:06:13;14.10;1.00
816;DHT22;25928;51.062;13.752;2022-09-17T08:08:39;14.20;1.00
816;DHT22;25928;51.062;13.752;2022-09-17T08:11:14;14.20;1.00
816;DHT22;25928;51.062;13.752;2022-09-17T08:13:40;14.10;1.00
816;DHT22;25928;51.062;13.752;2022-09-17T08:16:09;14.10;1.00
816;DHT22;25928;51.062;13.752;2022-09-17T08:18:35;14.00;1.00
816;DHT22;25928;51.062;13.752;2022-09-17T08:21:06;14.10;1.00
816;DHT22;25928;51.062;13.752;2022-09-17T08:23:36;14.20;1.00
816;DHT22;25928;51.062;13.752;2022-09-17T08:26:02;14.20;1.00
816;DHT22;25928;51.062;13.752;2022-09-17T08:28:29;14.30;1.00
816;DHT22;25928;51.062;13.752;2022-09-17T08:31:06;14.40;1.00
816;DHT22;25928;51.062;13.752;2022-09-17T08:33:36;14.50;1.00
816;DHT22;25928;51.062;13.752;2022-09-17T08:38:30;14.60;1.00
816;DHT22;25928;51.062;13.752;2022-09-17T08:46:46;14.60;1.00
816;DHT22;25928;51.062;13.752;2022-09-17T08:59:50;14.90;1.00
816;DHT22;25928;51.062;13.752;2022-09-17T09:02:40;14.90;1.00
816;DHT22;25928;51.062;13.752;2022-09-17T09:05:15;14.90;1.00
816;DHT22;25928;51.062;13.752;2022-09-17T09:07:54;15.10;1.00
816;DHT22;25928;51.062;13.752;2022-09-17T09:10:27;15.20;1.00
816;DHT22;25928;51.062;13.752;2022-09-17T09:12:58;15.40;1.00
816;DHT22;25928;51.062;13.752;2022-09-17T09:15:35;15.40;1.00
816;DHT22;25928;51.062;13.752;2022-09-17T09:18:12;15.40;1.00
816;DHT22;25928;51.062;13.752;2022-09-17T09:20:52;15.40;1.00
816;DHT22;25928;51.062;13.752;2022-09-17T09:23:26;15.40;1.00
816;DHT22;25928;51.062;13.752;2022-09-17T09:26:09;15.50;1.00
816;DHT22;25928;51.062;13.752;2022-09-17T09:29:02;15.50;1.00
816;DHT22;25928;51.062;13.752;2022-09-17T09:32:07;15.50;1.00
816;DHT22;25928;51.062;13.752;2022-09-17T09:34:34;15.70;1.00
816;DHT22;25928;51.062;13.752;2022-09-17T09:37:26;15.90;1.00
816;DHT22;25928;51.062;13.752;2022-09-17T09:39:54;15.90;1.00
816;DHT22;25928;51.062;13.752;2022-09-17T09:42:29;15.90;1.00
816;DHT22;25928;51.062;13.752;2022-09-17T09:45:12;15.90;1.00
816;DHT22;25928;51.062;13.752;2022-09-17T09:47:47;16.00;1.00
816;DHT22;25928;51.062;13.752;2022-09-17T09:56:27;15.60;1.00
816;DHT22;25928;51.062;13.752;2022-09-17T09:58:57;14.80;1.00
816;DHT22;25928;51.062;13.752;2022-09-17T10:01:26;14.50;1.00
816;DHT22;25928;51.062;13.752;2022-09-17T10:03:52;14.50;1.00
816;DHT22;25928;51.062;13.752;2022-09-17T10:06:20;14.60;1.00
816;DHT22;25928;51.062;13.752;2022-09-17T10:11:22;15.30;1.00
816;DHT22;25928;51.062;13.752;2022-09-17T10:13:48;15.90;1.00
816;DHT22;25928;51.062;13.752;2022-09-17T10:18:41;15.80;1.00
816;DHT22;25928;51.062;13.752;2022-09-17T10:21:21;15.70;1.00
816;DHT22;25928;51.062;13.752;2022-09-17T10:23:48;15.10;1.00
816;DHT22;25928;51.062;13.752;2022-09-17T10:26:28;14.90;1.00
816;DHT22;25928;51.062;13.752;2022-09-17T10:29:10;14.80;1.00
816;DHT22;25928;51.062;13.752;2022-09-17T10:31:51;14.90;1.00
816;DHT22;25928;51.062;13.752;2022-09-17T10:34:22;14.80;1.00
816;DHT22;25928;51.062;13.752;2022-09-17T10:36:49;14.40;1.00
816;DHT22;25928;51.062;13.752;2022-09-17T10:39:33;14.50;1.00
816;DHT22;25928;51.062;13.752;2022-09-17T10:42:12;14.60;1.00
816;DHT22;25928;51.062;13.752;2022-09-17T10:44:38;14.60;1.00
816;DHT22;25928;51.062;13.752;2022-09-17T10:47:21;14.60;1.00
816;DHT22;25928;51.062;13.752;2022-09-17T10:49:56;15.00;1.00
816;DHT22;25928;51.062;13.752;2022-09-17T10:52:39;15.20;1.00
816;DHT22;25928;51.062;13.752;2022-09-17T11:00:22;15.60;1.00
816;DHT22;25928;51.062;13.752;2022-09-17T11:08:45;15.90;1.00
816;DHT22;25928;51.062;13.752;2022-09-17T11:14:10;16.10;1.00
816;DHT22;25928;51.062;13.752;2022-09-17T11:16:39;16.30;1.00
816;DHT22;25928;51.062;13.752;2022-09-17T11:19:25;16.30;1.00
816;DHT22;25928;51.062;13.752;2022-09-17T11:21:55;16.30;1.00
816;DHT22;25928;51.062;13.752;2022-09-17T11:35:18;16.90;1.00
816;DHT22;25928;51.062;13.752;2022-09-17T11:43:27;17.20;1.00
816;DHT22;25928;51.062;13.752;2022-09-17T11:46:16;17.10;1.00
816;DHT22;25928;51.062;13.752;2022-09-17T11:48:51;16.50;1.00
816;DHT22;25928;51.062;13.752;2022-09-17T11:51:49;15.10;1.00
816;DHT22;25928;51.062;13.752;2022-09-17T11:54:24;15.00;1.00
816;DHT22;25928;51.062;13.752;2022-09-17T11:57:12;14.60;1.00
816;DHT22;25928;51.062;13.752;2022-09-17T12:00:14;14.50;1.00
816;DHT22;25928;51.062;13.752;2022-09-17T12:05:21;14.50;1.00
816;DHT22;25928;51.062;13.752;2022-09-17T12:10:26;14.80;1.00
816;DHT22;25928;51.062;13.752;2022-09-17T12:15:48;15.30;1.00
816;DHT22;25928;51.062;13.752;2022-09-17T12:18:23;15.60;1.00
816;DHT22;25928;51.062;13.752;2022-09-17T12:20:53;16.00;1.00
816;DHT22;25928;51.062;13.752;2022-09-17T12:23:36;16.20;1.00
816;DHT22;25928;51.062;13.752;2022-09-17T12:26:18;16.30;1.00
816;DHT22;25928;51.062;13.752;2022-09-17T12:31:50;16.00;1.00
816;DHT22;25928;51.062;13.752;2022-09-17T12:34:48;15.90;1.00
816;DHT22;25928;51.062;13.752;2022-09-17T12:42:46;16.20;1.00
816;DHT22;25928;51.062;13.752;2022-09-17T12:48:58;16.40;1.00
816;DHT22;25928;51.062;13.752;2022-09-17T12:59:34;17.00;1.00
816;DHT22;25928;51.062;13.752;2022-09-17T13:05:05;15.70;1.00
816;DHT22;25928;51.062;13.752;2022-09-17T13:14:17;17.10;1.00
816;DHT22;25928;51.062;13.752;2022-09-17T13:17:02;17.10;1.00
816;DHT22;25928;51.062;13.752;2022-09-17T13:19:46;17.30;1.00
816;DHT22;25928;51.062;13.752;2022-09-17T13:22:18;17.00;1.00
816;DHT22;25928;51.062;13.752;2022-09-17T13:24:46;16.40;1.00
816;DHT22;25928;51.062;13.752;2022-09-17T13:27:22;16.10;1.00
816;DHT22;25928;51.062;13.752;2022-09-17T13:42:56;15.10;1.00
816;DHT22;25928;51.062;13.752;2022-09-17T13:45:24;15.20;1.00
816;DHT22;25928;51.062;13.752;2022-09-17T13:48:08;15.50;1.00
816;DHT22;25928;51.062;13.752;2022-09-17T13:50:37;16.10;1.00
816;DHT22;25928;51.062;13.752;2022-09-17T13:55:49;16.40;1.00
816;DHT22;25928;51.062;13.752;2022-09-17T14:22:24;16.30;1.00
816;DHT22;25928;51.062;13.752;2022-09-17T14:24:52;16.20;1.00
816;DHT22;25928;51.062;13.752;2022-09-17T14:27:43;16.30;1.00
816;DHT22;25928;51.062;13.752;2022-09-17T14:33:07;16.50;1.00
816;DHT22;25928;51.062;13.752;2022-09-17T14:35:40;16.70;1.00
816;DHT22;25928;51.062;13.752;2022-09-17T14:38:14;16.70;1.00
816;DHT22;25928;51.062;13.752;2022-09-17T14:40:43;16.60;1.00
816;DHT22;25928;51.062;13.752;2022-09-17T14:43:26;16.70;1.00
816;DHT22;25928;51.062;13.752;2022-09-17T14:45:56;16.70;1.00
816;DHT22;25928;51.062;13.752;2022-09-17T14:48:31;16.70;1.00
816;DHT22;25928;51.062;13.752;2022-09-17T14:51:20;16.60;1.00
816;DHT22;25928;51.062;13.752;2022-09-17T14:53:48;17.10;1.00
816;DHT22;25928;51.062;13.752;2022-09-17T14:56:16;17.20;1.00
816;DHT22;25928;51.062;13.752;2022-09-17T14:58:53;17.20;1.00
816;DHT22;25928;51.062;13.752;2022-09-17T15:01:28;16.90;1.00
816;DHT22;25928;51.062;13.752;2022-09-17T15:04:29;16.70;1.00
816;DHT22;25928;51.062;13.752;2022-09-17T15:07:11;16.40;1.00
816;DHT22;25928;51.062;13.752;2022-09-17T15:09:37;16.30;1.00
816;DHT22;25928;51.062;13.752;2022-09-17T15:12:05;16.40;1.00
816;DHT22;25928;51.062;13.752;2022-09-17T15:14:35;16.30;1.00
816;DHT22;25928;51.062;13.752;2022-09-17T15:17:04;16.20;1.00
816;DHT22;25928;51.062;13.752;2022-09-17T15:19:37;17.10;1.00
816;DHT22;25928;51.062;13.752;2022-09-17T15:22:08;17.80;1.00
816;DHT22;25928;51.062;13.752;2022-09-17T15:24:55;17.70;1.00
816;DHT22;25928;51.062;13.752;2022-09-17T15:27:32;18.40;1.00
816;DHT22;25928;51.062;13.752;2022-09-17T15:30:03;18.90;1.00
816;DHT22;25928;51.062;13.752;2022-09-17T15:32:31;19.70;1.00
816;DHT22;25928;51.062;13.752;2022-09-17T15:37:46;21.10;1.00
816;DHT22;25928;51.062;13.752;2022-09-17T15:40:15;20.50;1.00
816;DHT22;25928;51.062;13.752;2022-09-17T15:42:49;19.50;1.00
816;DHT22;25928;51.062;13.752;2022-09-17T15:45:20;18.30;1.00
816;DHT22;25928;51.062;13.752;2022-09-17T15:47:56;18.30;1.00
816;DHT22;25928;51.062;13.752;2022-09-17T15:50:33;17.90;1.00
816;DHT22;25928;51.062;13.752;2022-09-17T15:55:39;17.40;1.00
816;DHT22;25928;51.062;13.752;2022-09-17T16:08:57;16.60;1.00
816;DHT22;25928;51.062;13.752;2022-09-17T16:11:25;16.40;1.00
816;DHT22;25928;51.062;13.752;2022-09-17T16:13:52;16.30;1.00
816;DHT22;25928;51.062;13.752;2022-09-17T16:16:26;16.20;1.00
816;DHT22;25928;51.062;13.752;2022-09-17T16:18:54;16.20;1.00
816;DHT22;25928;51.062;13.752;2022-09-17T16:21:19;16.10;1.00
816;DHT22;25928;51.062;13.752;2022-09-17T16:23:45;16.10;1.00
816;DHT22;25928;51.062;13.752;2022-09-17T16:26:15;16.00;1.00
816;DHT22;25928;51.062;13.752;2022-09-17T16:28:43;15.90;1.00
816;DHT22;25928;51.062;13.752;2022-09-17T16:31:13;15.90;1.00
816;DHT22;25928;51.062;13.752;2022-09-17T16:33:39;15.90;1.00
816;DHT22;25928;51.062;13.752;2022-09-17T16:36:05;15.80;1.00
816;DHT22;25928;51.062;13.752;2022-09-17T16:38:31;15.80;1.00
816;DHT22;25928;51.062;13.752;2022-09-17T16:40:57;15.80;1.00
816;DHT22;25928;51.062;13.752;2022-09-17T16:43:23;15.80;1.00
816;DHT22;25928;51.062;13.752;2022-09-17T16:46:02;15.70;1.00
816;DHT22;25928;51.062;13.752;2022-09-17T16:48:28;15.70;1.00
816;DHT22;25928;51.062;13.752;2022-09-17T16:50:54;15.80;1.00
816;DHT22;25928;51.062;13.752;2022-09-17T16:53:20;15.90;1.00
816;DHT22;25928;51.062;13.752;2022-09-17T16:55:46;15.80;1.00
816;DHT22;25928;51.062;13.752;2022-09-17T16:58:11;15.80;1.00
816;DHT22;25928;51.062;13.752;2022-09-17T17:00:37;15.80;1.00
816;DHT22;25928;51.062;13.752;2022-09-17T17:03:03;16.10;1.00
816;DHT22;25928;51.062;13.752;2022-09-17T17:05:29;15.10;1.00
816;DHT22;25928;51.062;13.752;2022-09-17T17:07:55;14.50;1.00
816;DHT22;25928;51.062;13.752;2022-09-17T17:10:22;14.10;1.00
816;DHT22;25928;51.062;13.752;2022-09-17T17:12:48;13.80;1.00
816;DHT22;25928;51.062;13.752;2022-09-17T17:15:14;13.60;1.00
816;DHT22;25928;51.062;13.752;2022-09-17T17:20:07;13.30;1.00
816;DHT22;25928;51.062;13.752;2022-09-17T17:22:39;13.30;1.00
816;DHT22;25928;51.062;13.752;2022-09-17T17:25:06;13.20;1.00
816;DHT22;25928;51.062;13.752;2022-09-17T17:27:32;13.30;1.00
816;DHT22;25928;51.062;13.752;2022-09-17T17:29:58;13.30;1.00
816;DHT22;25928;51.062;13.752;2022-09-17T17:32:25;13.20;1.00
816;DHT22;25928;51.062;13.752;2022-09-17T17:34:51;13.10;1.00
816;DHT22;25928;51.062;13.752;2022-09-17T17:37:17;13.10;1.00
816;DHT22;25928;51.062;13.752;2022-09-17T17:39:43;13.10;1.00
816;DHT22;25928;51.062;13.752;2022-09-17T17:42:08;13.20;1.00
816;DHT22;25928;51.062;13.752;2022-09-17T17:44:34;13.40;1.00
816;DHT22;25928;51.062;13.752;2022-09-17T17:47:00;14.80;1.00
816;DHT22;25928;51.062;13.752;2022-09-17T17:49:26;13.60;1.00
816;DHT22;25928;51.062;13.752;2022-09-17T17:51:52;13.60;1.00
816;DHT22;25928;51.062;13.752;2022-09-17T17:54:18;13.50;1.00
816;DHT22;25928;51.062;13.752;2022-09-17T17:56:44;13.50;1.00
816;DHT22;25928;51.062;13.752;2022-09-17T17:59:09;13.60;1.00
816;DHT22;25928;51.062;13.752;2022-09-17T18:01:35;13.60;1.00
816;DHT22;25928;51.062;13.752;2022-09-17T18:04:03;13.60;1.00
816;DHT22;25928;51.062;13.752;2022-09-17T18:06:30;13.50;1.00
816;DHT22;25928;51.062;13.752;2022-09-17T18:08:55;13.50;1.00
816;DHT22;25928;51.062;13.752;2022-09-17T18:11:22;13.60;1.00
816;DHT22;25928;51.062;13.752;2022-09-17T18:13:52;13.50;1.00
816;DHT22;25928;51.062;13.752;2022-09-17T18:16:18;13.50;1.00
816;DHT22;25928;51.062;13.752;2022-09-17T18:18:45;13.70;1.00
816;DHT22;25928;51.062;13.752;2022-09-17T18:21:16;13.60;1.00
816;DHT22;25928;51.062;13.752;2022-09-17T18:23:42;13.60;1.00
816;DHT22;25928;51.062;13.752;2022-09-17T18:26:14;13.50;1.00
816;DHT22;25928;51.062;13.752;2022-09-17T18:28:40;13.50;1.00
816;DHT22;25928;51.062;13.752;2022-09-17T18:31:07;13.40;1.00
816;DHT22;25928;51.062;13.752;2022-09-17T18:33:33;13.40;1.00
816;DHT22;25928;51.062;13.752;2022-09-17T18:36:03;13.40;1.00
816;DHT22;25928;51.062;13.752;2022-09-17T18:38:30;13.30;1.00
816;DHT22;25928;51.062;13.752;2022-09-17T18:41:00;13.30;1.00
816;DHT22;25928;51.062;13.752;2022-09-17T18:43:26;13.30;1.00
816;DHT22;25928;51.062;13.752;2022-09-17T18:45:56;13.30;1.00
816;DHT22;25928;51.062;13.752;2022-09-17T18:48:22;13.20;1.00
816;DHT22;25928;51.062;13.752;2022-09-17T18:51:01;13.10;1.00
816;DHT22;25928;51.062;13.752;2022-09-17T18:53:28;13.10;1.00
816;DHT22;25928;51.062;13.752;2022-09-17T18:55:57;13.10;1.00
816;DHT22;25928;51.062;13.752;2022-09-17T18:58:23;12.90;1.00
816;DHT22;25928;51.062;13.752;2022-09-17T19:00:48;12.90;1.00
816;DHT22;25928;51.062;13.752;2022-09-17T19:03:14;12.80;1.00
816;DHT22;25928;51.062;13.752;2022-09-17T19:05:40;13.00;1.00
816;DHT22;25928;51.062;13.752;2022-09-17T19:08:05;13.10;1.00
816;DHT22;25928;51.062;13.752;2022-09-17T19:10:31;13.10;1.00
816;DHT22;25928;51.062;13.752;2022-09-17T19:12:57;12.90;1.00
816;DHT22;25928;51.062;13.752;2022-09-17T19:15:22;12.90;1.00
816;DHT22;25928;51.062;13.752;2022-09-17T19:17:48;13.00;1.00
816;DHT22;25928;51.062;13.752;2022-09-17T19:20:14;13.00;1.00
816;DHT22;25928;51.062;13.752;2022-09-17T19:22:40;13.00;1.00
816;DHT22;25928;51.062;13.752;2022-09-17T19:25:06;13.10;1.00
816;DHT22;25928;51.062;13.752;2022-09-17T19:27:32;13.00;1.00
816;DHT22;25928;51.062;13.752;2022-09-17T19:29:57;13.00;1.00
816;DHT22;25928;51.062;13.752;2022-09-17T19:32:24;13.00;1.00
816;DHT22;25928;51.062;13.752;2022-09-17T19:34:52;13.00;1.00
816;DHT22;25928;51.062;13.752;2022-09-17T19:37:18;13.10;1.00
816;DHT22;25928;51.062;13.752;2022-09-17T19:39:43;13.20;1.00
816;DHT22;25928;51.062;13.752;2022-09-17T19:42:09;13.20;1.00
816;DHT22;25928;51.062;13.752;2022-09-17T19:44:35;13.10;1.00